Time,TemperatureF,DewpointF,PressureIn,WindDirection,WindDirectionDegrees,WindSpeedMPH,WindSpeedGustMPH,Humidity,HourlyPrecipIn,Conditions,Clouds,dailyrainin,SoftwareType,DateUTC
2013-04-19 00:02:00,33.0,-99.9,-100.00,NNE,23,6.0,8.0,-999,0.00,,,-99.99,,2013-04-19 06:02:00,
2013-04-19 00:12:00,33.0,-99.9,-100.00,NNE,20,4.0,7.0,-999,0.00,,,-99.99,,2013-04-19 06:12:00,
2013-04-19 00:22:00,33.0,-99.9,-100.00,NNE,20,4.0,7.0,-999,0.00,,,-99.99,,2013-04-19 06:22:00,
2013-04-19 00:32:00,34.0,-99.9,-100.00,NNE,17,4.0,8.0,-999,0.00,,,-99.99,,2013-04-19 06:32:00,
2013-04-19 00:42:00,34.0,-99.9,-100.00,NNE,17,4.0,8.0,-999,0.00,,,-99.99,,2013-04-19 06:42:00,
2013-04-19 00:53:00,32.0,-99.9,-100.00,NNE,15,6.0,8.0,-999,0.00,,,-99.99,,2013-04-19 06:53:00,
2013-04-19 01:02:00,32.0,-99.9,-100.00,NNE,23,0.0,3.0,-999,0.00,,,-99.99,,2013-04-19 07:02:00,
2013-04-19 01:12:00,32.0,-99.9,-100.00,North,0,0.0,0.0,-999,0.00,,,-99.99,,2013-04-19 07:12:00,
2013-04-19 01:22:00,32.0,-99.9,-100.00,North,0,0.0,0.0,-999,0.00,,,-99.99,,2013-04-19 07:22:00,
2013-04-19 01:32:00,31.0,-99.9,-100.00,North,0,0.0,0.0,-999,0.00,,,-99.99,,2013-04-19 07:32:00,
2013-04-19 01:42:00,31.0,-99.9,-100.00,North,0,0.0,0.0,-999,0.00,,,-99.99,,2013-04-19 07:42:00,
2013-04-19 01:52:00,31.0,-99.9,-100.00,North,0,0.0,0.0,-999,0.00,,,-99.99,,2013-04-19 07:52:00,
2013-04-19 02:02:00,31.0,-99.9,-100.00,North,0,0.0,0.0,-999,0.00,,,-99.99,,2013-04-19 08:02:00,
2013-04-19 02:12:00,30.0,-99.9,-100.00,North,0,0.0,0.0,-999,0.00,,,-99.99,,2013-04-19 08:12:00,
2013-04-19 02:22:00,30.0,-99.9,-100.00,North,0,0.0,0.0,-999,0.00,,,-99.99,,2013-04-19 08:22:00,
2013-04-19 02:33:00,30.0,-99.9,-100.00,North,11,2.0,7.0,-999,0.00,,,-99.99,,2013-04-19 08:33:00,
2013-04-19 02:42:00,29.0,-99.9,-100.00,NE,37,5.0,8.0,-999,0.00,,,-99.99,,2013-04-19 08:42:00,
2013-04-19 02:52:00,29.0,-99.9,-100.00,NE,37,5.0,8.0,-999,0.00,,,-99.99,,2013-04-19 08:52:00,
2013-04-19 03:02:00,29.0,-99.9,-100.00,NNE,15,3.0,7.0,-999,0.00,,,-99.99,,2013-04-19 09:02:00,
2013-04-19 03:12:00,31.0,-99.9,-100.00,North,6,1.0,3.0,-999,0.00,,,-99.99,,2013-04-19 09:12:00,
2013-04-19 03:22:00,31.0,-99.9,-100.00,North,6,1.0,3.0,-999,0.00,,,-99.99,,2013-04-19 09:22:00,
2013-04-19 03:33:00,31.0,-99.9,-100.00,North,0,0.0,0.0,-999,0.00,,,-99.99,,2013-04-19 09:33:00,
2013-04-19 03:43:00,31.0,-99.9,-100.00,North,0,0.0,0.0,-999,0.00,,,-99.99,,2013-04-19 09:43:00,
2013-04-19 03:52:00,31.0,-99.9,-100.00,North,0,0.0,0.0,-999,0.00,,,-99.99,,2013-04-19 09:52:00,
2013-04-19 04:02:00,31.0,-99.9,-100.00,North,0,0.0,0.0,-999,0.00,,,-99.99,,2013-04-19 10:02:00,
2013-04-19 04:13:00,31.0,-99.9,-100.00,North,0,0.0,0.0,-999,0.00,,,-99.99,,2013-04-19 10:13:00,
2013-04-19 04:23:00,31.0,-99.9,-100.00,North,0,0.0,0.0,-999,0.00,,,-99.99,,2013-04-19 10:23:00,
2013-04-19 04:33:00,31.0,-99.9,-100.00,North,0,0.0,0.0,-999,0.00,,,-99.99,,2013-04-19 10:33:00,
2013-04-19 04:42:00,31.0,-99.9,-100.00,North,0,0.0,0.0,-999,0.00,,,-99.99,,2013-04-19 10:42:00,
2013-04-19 04:52:00,31.0,-99.9,-100.00,North,0,0.0,0.0,-999,0.00,,,-99.99,,2013-04-19 10:52:00,
2013-04-19 05:03:00,32.0,-99.9,-100.00,NNE,15,1.0,7.0,-999,0.00,,,-99.99,,2013-04-19 11:03:00,
2013-04-19 05:12:00,32.0,-99.9,-100.00,North,0,0.0,0.0,-999,0.00,,,-99.99,,2013-04-19 11:12:00,
2013-04-19 05:22:00,32.0,-99.9,-100.00,North,0,0.0,0.0,-999,0.00,,,-99.99,,2013-04-19 11:22:00,
2013-04-19 05:33:00,32.0,-99.9,-100.00,North,8,2.0,7.0,-999,0.00,,,-99.99,,2013-04-19 11:33:00,
2013-04-19 05:43:00,32.0,-99.9,-100.00,North,8,2.0,7.0,-999,0.00,,,-99.99,,2013-04-19 11:43:00,
2013-04-19 05:53:00,31.0,-99.9,-100.00,NNE,28,4.0,6.0,-999,0.00,,,-99.99,,2013-04-19 11:53:00,
2013-04-19 06:03:00,31.0,-99.9,-100.00,NNE,25,3.0,6.0,-999,0.00,,,-99.99,,2013-04-19 12:03:00,
2013-04-19 06:12:00,31.0,-99.9,-100.00,North,0,0.0,0.0,-999,0.00,,,-99.99,,2013-04-19 12:12:00,
2013-04-19 06:22:00,31.0,-99.9,-100.00,North,0,0.0,0.0,-999,0.00,,,-99.99,,2013-04-19 12:22:00,
2013-04-19 06:32:00,31.0,-99.9,-100.00,North,0,0.0,0.0,-999,0.00,,,-99.99,,2013-04-19 12:32:00,
2013-04-19 06:42:00,31.0,-99.9,-100.00,North,0,0.0,0.0,-999,0.00,,,-99.99,,2013-04-19 12:42:00,
2013-04-19 06:53:00,31.0,-99.9,-100.00,North,0,0.0,0.0,-999,0.00,,,-99.99,,2013-04-19 12:53:00,
2013-04-19 07:02:00,31.0,-99.9,-100.00,North,0,0.0,0.0,-999,0.00,,,-99.99,,2013-04-19 13:02:00,
2013-04-19 07:11:00,30.0,-99.9,-100.00,North,0,0.0,0.0,-999,0.00,,,-99.99,,2013-04-19 13:11:00,
2013-04-19 07:22:00,30.0,-99.9,-100.00,North,0,0.0,0.0,-999,0.00,,,-99.99,,2013-04-19 13:22:00,
2013-04-19 07:32:00,30.0,-99.9,-100.00,North,0,0.0,0.0,-999,0.00,,,-99.99,,2013-04-19 13:32:00,
2013-04-19 07:42:00,31.0,-99.9,-100.00,North,0,0.0,0.0,-999,0.00,,,-99.99,,2013-04-19 13:42:00,
2013-04-19 07:52:00,31.0,-99.9,-100.00,North,0,0.0,0.0,-999,0.00,,,-99.99,,2013-04-19 13:52:00,
2013-04-19 08:02:00,31.0,-99.9,-100.00,North,0,0.0,0.0,-999,0.00,,,-99.99,,2013-04-19 14:02:00,
2013-04-19 08:12:00,32.0,-99.9,-100.00,North,0,0.0,0.0,-999,0.00,,,-99.99,,2013-04-19 14:12:00,
2013-04-19 08:22:00,32.0,-99.9,-100.00,North,0,0.0,0.0,-999,0.00,,,-99.99,,2013-04-19 14:22:00,
2013-04-19 08:32:00,32.0,-99.9,-100.00,North,0,0.0,0.0,-999,0.00,,,-99.99,,2013-04-19 14:32:00,
2013-04-19 08:43:00,32.0,-99.9,-100.00,North,0,0.0,0.0,-999,0.00,,,-99.99,,2013-04-19 14:43:00,
2013-04-19 08:52:00,33.0,-99.9,-100.00,North,0,0.0,0.0,-999,0.00,,,-99.99,,2013-04-19 14:52:00,
2013-04-19 09:02:00,32.0,-99.9,-100.00,North,0,0.0,0.0,-999,0.00,,,-99.99,,2013-04-19 15:02:00,
2013-04-19 09:12:00,34.0,-99.9,-100.00,North,0,0.0,0.0,-999,0.00,,,-99.99,,2013-04-19 15:12:00,
2013-04-19 09:22:00,34.0,-99.9,-100.00,North,0,0.0,0.0,-999,0.00,,,-99.99,,2013-04-19 15:22:00,
2013-04-19 09:33:00,36.0,-99.9,-100.00,North,0,0.0,0.0,-999,0.00,,,-99.99,,2013-04-19 15:33:00,
2013-04-19 09:43:00,36.0,-99.9,-100.00,North,0,0.0,0.0,-999,0.00,,,-99.99,,2013-04-19 15:43:00,
2013-04-19 09:53:00,35.0,-99.9,-100.00,North,0,0.0,0.0,-999,0.00,,,-99.99,,2013-04-19 15:53:00,
2013-04-19 10:03:00,35.0,-99.9,-100.00,North,0,0.0,0.0,-999,0.00,,,-99.99,,2013-04-19 16:03:00,
2013-04-19 10:13:00,36.0,-99.9,-100.00,North,0,0.0,0.0,-999,0.00,,,-99.99,,2013-04-19 16:13:00,
2013-04-19 10:23:00,36.0,-99.9,-100.00,North,0,0.0,0.0,-999,0.00,,,-99.99,,2013-04-19 16:23:00,
2013-04-19 10:33:00,37.0,-99.9,-100.00,NNE,28,0.0,3.0,-999,0.00,,,-99.99,,2013-04-19 16:33:00,
2013-04-19 10:43:00,37.0,-99.9,-100.00,North,0,0.0,0.0,-999,0.00,,,-99.99,,2013-04-19 16:43:00,
2013-04-19 10:53:00,37.0,-99.9,-100.00,North,0,0.0,0.0,-999,0.00,,,-99.99,,2013-04-19 16:53:00,
2013-04-19 11:02:00,38.0,-99.9,-100.00,North,0,0.0,0.0,-999,0.00,,,-99.99,,2013-04-19 17:02:00,
2013-04-19 11:12:00,38.0,-99.9,-100.00,North,0,0.0,0.0,-999,0.00,,,-99.99,,2013-04-19 17:12:00,
2013-04-19 11:22:00,42.0,-99.9,-100.00,North,0,0.0,0.0,-999,0.00,,,-99.99,,2013-04-19 17:22:00,
2013-04-19 11:33:00,46.0,-99.9,-100.00,North,0,0.0,0.0,-999,0.00,,,-99.99,,2013-04-19 17:33:00,
2013-04-19 11:43:00,46.0,-99.9,-100.00,North,0,0.0,0.0,-999,0.00,,,-99.99,,2013-04-19 17:43:00,
2013-04-19 11:52:00,43.0,-99.9,-100.00,North,0,0.0,0.0,-999,0.00,,,-99.99,,2013-04-19 17:52:00,
2013-04-19 12:02:00,44.0,-99.9,-100.00,ESE,113,1.0,6.0,-999,0.00,,,-99.99,,2013-04-19 18:02:00,
2013-04-19 12:13:00,44.0,-99.9,-100.00,ESE,113,1.0,6.0,-999,0.00,,,-99.99,,2013-04-19 18:13:00,
2013-04-19 12:23:00,46.0,-99.9,-100.00,SSE,153,2.0,5.0,-999,0.00,,,-99.99,,2013-04-19 18:23:00,
2013-04-19 12:33:00,46.0,-99.9,-100.00,South,169,0.0,2.0,-999,0.00,,,-99.99,,2013-04-19 18:33:00,
2013-04-19 12:43:00,46.0,-99.9,-100.00,South,169,0.0,2.0,-999,0.00,,,-99.99,,2013-04-19 18:43:00,
2013-04-19 12:52:00,46.0,-99.9,-100.00,SSW,198,1.0,4.0,-999,0.00,,,-99.99,,2013-04-19 18:52:00,
2013-04-19 13:02:00,48.0,-99.9,-100.00,South,184,1.0,4.0,-999,0.00,,,-99.99,,2013-04-19 19:02:00,
2013-04-19 13:11:00,46.0,-99.9,-100.00,North,0,0.0,0.0,-999,0.00,,,-99.99,,2013-04-19 19:11:00,
2013-04-19 13:22:00,46.0,-99.9,-100.00,North,0,0.0,0.0,-999,0.00,,,-99.99,,2013-04-19 19:22:00,
2013-04-19 13:32:00,46.0,-99.9,-100.00,North,0,0.0,0.0,-999,0.00,,,-99.99,,2013-04-19 19:32:00,
2013-04-19 13:42:00,46.0,-99.9,-100.00,North,0,0.0,0.0,-999,0.00,,,-99.99,,2013-04-19 19:42:00,
2013-04-19 13:52:00,47.0,-99.9,-100.00,North,0,0.0,0.0,-999,0.00,,,-99.99,,2013-04-19 19:52:00,
2013-04-19 14:02:00,48.0,-99.9,-100.00,SSE,165,1.0,4.0,-999,0.00,,,-99.99,,2013-04-19 20:02:00,
2013-04-19 14:11:00,46.0,-99.9,-100.00,East,87,0.0,1.0,-999,0.00,,,-99.99,,2013-04-19 20:11:00,
2013-04-19 14:22:00,46.0,-99.9,-100.00,East,87,0.0,1.0,-999,0.00,,,-99.99,,2013-04-19 20:22:00,
2013-04-19 14:32:00,46.0,-99.9,-100.00,North,0,0.0,0.0,-999,0.00,,,-99.99,,2013-04-19 20:32:00,
2013-04-19 14:42:00,46.0,-99.9,-100.00,North,0,0.0,0.0,-999,0.00,,,-99.99,,2013-04-19 20:42:00,
2013-04-19 14:52:00,46.0,-99.9,-100.00,North,0,0.0,0.0,-999,0.00,,,-99.99,,2013-04-19 20:52:00,
2013-04-19 15:01:00,47.0,-99.9,-100.00,North,0,0.0,0.0,-999,0.00,,,-99.99,,2013-04-19 21:01:00,
2013-04-19 15:12:00,48.0,-99.9,-100.00,SSW,203,0.0,2.0,-999,0.00,,,-99.99,,2013-04-19 21:12:00,
2013-04-19 15:22:00,48.0,-99.9,-100.00,SSW,203,0.0,2.0,-999,0.00,,,-99.99,,2013-04-19 21:22:00,
2013-04-19 15:32:00,51.0,-99.9,-100.00,North,0,0.0,0.0,-999,0.00,,,-99.99,,2013-04-19 21:32:00,
2013-04-19 15:43:00,51.0,-99.9,-100.00,North,0,0.0,0.0,-999,0.00,,,-99.99,,2013-04-19 21:43:00,
2013-04-19 15:53:00,51.0,-99.9,-100.00,SSW,203,1.0,5.0,-999,0.00,,,-99.99,,2013-04-19 21:53:00,
2013-04-19 16:03:00,47.0,-99.9,-100.00,North,0,0.0,0.0,-999,0.00,,,-99.99,,2013-04-19 22:03:00,
2013-04-19 16:13:00,50.0,-99.9,-100.00,South,169,2.0,6.0,-999,0.00,,,-99.99,,2013-04-19 22:13:00,
2013-04-19 16:23:00,50.0,-99.9,-100.00,South,169,2.0,6.0,-999,0.00,,,-99.99,,2013-04-19 22:23:00,
2013-04-19 16:33:00,50.0,-99.9,-100.00,South,180,0.0,2.0,-999,0.00,,,-99.99,,2013-04-19 22:33:00,
2013-04-19 16:42:00,49.0,-99.9,-100.00,North,0,0.0,0.0,-999,0.00,,,-99.99,,2013-04-19 22:42:00,
2013-04-19 16:52:00,49.0,-99.9,-100.00,North,0,0.0,0.0,-999,0.00,,,-99.99,,2013-04-19 22:52:00,
2013-04-19 17:03:00,49.0,-99.9,-100.00,West,280,1.0,5.0,-999,0.00,,,-99.99,,2013-04-19 23:03:00,
2013-04-19 17:11:00,46.0,-99.9,-100.00,North,0,0.0,0.0,-999,0.00,,,-99.99,,2013-04-19 23:11:00,
2013-04-19 17:22:00,46.0,-99.9,-100.00,North,0,0.0,0.0,-999,0.00,,,-99.99,,2013-04-19 23:22:00,
2013-04-19 17:32:00,45.0,-99.9,-100.00,SE,145,0.0,3.0,-999,0.00,,,-99.99,,2013-04-19 23:32:00,
2013-04-19 17:42:00,45.0,-99.9,-100.00,SE,145,0.0,3.0,-999,0.00,,,-99.99,,2013-04-19 23:42:00,
2013-04-19 17:53:00,44.0,-99.9,-100.00,North,0,0.0,0.0,-999,0.00,,,-99.99,,2013-04-19 23:53:00,
2013-04-19 18:02:00,47.0,-99.9,-100.00,North,0,0.0,0.0,-999,0.00,,,-99.99,,2013-04-20 00:02:00,
2013-04-19 18:12:00,44.0,-99.9,-100.00,South,187,1.0,3.0,-999,0.00,,,-99.99,,2013-04-20 00:12:00,
2013-04-19 18:22:00,44.0,-99.9,-100.00,South,187,1.0,3.0,-999,0.00,,,-99.99,,2013-04-20 00:22:00,
2013-04-19 18:32:00,43.0,-99.9,-100.00,SSW,204,1.0,5.0,-999,0.00,,,-99.99,,2013-04-20 00:32:00,
2013-04-19 18:42:00,43.0,-99.9,-100.00,SSW,204,1.0,5.0,-999,0.00,,,-99.99,,2013-04-20 00:42:00,
2013-04-19 18:52:00,44.0,-99.9,-100.00,SSE,162,1.0,3.0,-999,0.00,,,-99.99,,2013-04-20 00:52:00,
2013-04-19 19:02:00,43.0,-99.9,-100.00,South,181,3.0,6.0,-999,0.00,,,-99.99,,2013-04-20 01:02:00,
2013-04-19 19:11:00,43.0,-99.9,-100.00,South,181,3.0,6.0,-999,0.00,,,-99.99,,2013-04-20 01:11:00,
2013-04-19 19:21:00,42.0,-99.9,-100.00,SSW,208,4.0,6.0,-999,0.00,,,-99.99,,2013-04-20 01:21:00,
2013-04-19 19:32:00,41.0,-99.9,-100.00,SSE,148,4.0,7.0,-999,0.00,,,-99.99,,2013-04-20 01:32:00,
2013-04-19 19:42:00,41.0,-99.9,-100.00,SSE,148,4.0,7.0,-999,0.00,,,-99.99,,2013-04-20 01:42:00,
2013-04-19 19:52:00,39.0,-99.9,-100.00,South,187,5.0,8.0,-999,0.00,,,-99.99,,2013-04-20 01:52:00,
2013-04-19 20:02:00,38.0,-99.9,-100.00,ESE,105,5.0,8.0,-999,0.00,,,-99.99,,2013-04-20 02:02:00,
2013-04-19 20:11:00,37.0,-99.9,-100.00,SSW,195,5.0,7.0,-999,0.00,,,-99.99,,2013-04-20 02:11:00,
2013-04-19 20:22:00,37.0,-99.9,-100.00,SSW,195,5.0,7.0,-999,0.00,,,-99.99,,2013-04-20 02:22:00,
2013-04-19 20:32:00,37.0,-99.9,-100.00,SE,143,4.0,7.0,-999,0.00,,,-99.99,,2013-04-20 02:32:00,
2013-04-19 20:42:00,37.0,-99.9,-100.00,SE,143,4.0,7.0,-999,0.00,,,-99.99,,2013-04-20 02:42:00,
2013-04-19 20:52:00,37.0,-99.9,-100.00,South,181,4.0,7.0,-999,0.00,,,-99.99,,2013-04-20 02:52:00,
2013-04-19 21:01:00,36.0,-99.9,-100.00,SSE,153,4.0,7.0,-999,0.00,,,-99.99,,2013-04-20 03:01:00,
2013-04-19 21:11:00,35.0,-99.9,-100.00,South,188,4.0,7.0,-999,0.00,,,-99.99,,2013-04-20 03:11:00,
2013-04-19 21:22:00,35.0,-99.9,-100.00,South,188,4.0,7.0,-999,0.00,,,-99.99,,2013-04-20 03:22:00,
2013-04-19 21:33:00,35.0,-99.9,-100.00,South,183,3.0,6.0,-999,0.00,,,-99.99,,2013-04-20 03:33:00,
2013-04-19 21:43:00,35.0,-99.9,-100.00,SSE,163,4.0,8.0,-999,0.00,,,-99.99,,2013-04-20 03:43:00,
2013-04-19 21:53:00,35.0,-99.9,-100.00,SSE,163,4.0,8.0,-999,0.00,,,-99.99,,2013-04-20 03:53:00,
2013-04-19 22:03:00,35.0,-99.9,-100.00,SSE,153,3.0,5.0,-999,0.00,,,-99.99,,2013-04-20 04:03:00,
2013-04-19 22:13:00,35.0,-99.9,-100.00,SE,146,1.0,5.0,-999,0.00,,,-99.99,,2013-04-20 04:13:00,
2013-04-19 22:23:00,35.0,-99.9,-100.00,SE,146,1.0,5.0,-999,0.00,,,-99.99,,2013-04-20 04:23:00,
2013-04-19 22:33:00,34.0,-99.9,-100.00,SSE,165,2.0,5.0,-999,0.00,,,-99.99,,2013-04-20 04:33:00,
2013-04-19 22:43:00,34.0,-99.9,-100.00,SSE,165,2.0,5.0,-999,0.00,,,-99.99,,2013-04-20 04:43:00,
2013-04-19 22:53:00,35.0,-99.9,-100.00,SSE,163,6.0,8.0,-999,0.00,,,-99.99,,2013-04-20 04:53:00,
2013-04-19 23:02:00,34.0,-99.9,-100.00,South,176,6.0,8.0,-999,0.00,,,-99.99,,2013-04-20 05:02:00,
2013-04-19 23:12:00,34.0,-99.9,-100.00,SE,145,4.0,8.0,-999,0.00,,,-99.99,,2013-04-20 05:12:00,
2013-04-19 23:22:00,34.0,-99.9,-100.00,SE,145,4.0,8.0,-999,0.00,,,-99.99,,2013-04-20 05:22:00,
2013-04-19 23:32:00,34.0,-99.9,-100.00,SSE,158,4.0,6.0,-999,0.00,,,-99.99,,2013-04-20 05:32:00,
2013-04-19 23:43:00,34.0,-99.9,-100.00,SSE,158,4.0,6.0,-999,0.00,,,-99.99,,2013-04-20 05:43:00,
2013-04-19 23:52:00,34.0,-99.9,-100.00,SSW,193,4.0,7.0,-999,0.00,,,-99.99,,2013-04-20 05:52:00,